This is the latest recevied weather packets stored in our database for station/object N0FDH. If no packets are shown the sender has not sent any weather packets the latest 10 day(s).
| Time | Temp. | Humidity | Pressure | Rain* | Wind** | Luminosity | Snow |
|---|---|---|---|---|---|---|---|
| 1777678965 | 10.56° C | 35% | 1017.4 hPa | 0 mm | - | 52 W/m² | - |
| 1777678663 | 10.56° C | 34% | 1017.5 hPa | 0 mm | - | 96 W/m² | - |
| 1777678361 | 10.56° C | 33% | 1017.4 hPa | 0 mm | - | 59 W/m² | - |
| 1777678056 | 10° C | 34% | 1017.5 hPa | 0 mm | - | 128 W/m² | - |
| 1777677753 | 10° C | 34% | 1017.5 hPa | 0 mm | - | 69 W/m² | - |
| 1777677451 | 10.56° C | 34% | 1017.4 hPa | 0 mm | - | 68 W/m² | - |
| 1777677149 | 10.56° C | 33% | 1017.3 hPa | 0 mm | - | 88 W/m² | - |
| 1777676847 | 10.56° C | 33% | 1017.4 hPa | 0 mm | - | 98 W/m² | - |
| 1777676546 | 10.56° C | 34% | 1017.4 hPa | 0 mm | - | 118 W/m² | - |
| 1777676243 | 10.56° C | 34% | 1017.4 hPa | 0 mm | - | 97 W/m² | - |
| 1777675940 | 10.56° C | 33% | 1017.4 hPa | 0 mm | - | 101 W/m² | - |
| 1777675635 | 10.56° C | 35% | 1017.4 hPa | 0 mm | - | 119 W/m² | - |
| 1777675334 | 10.56° C | 35% | 1017.4 hPa | 0 mm | - | 111 W/m² | - |
| 1777675029 | 10.56° C | 35% | 1017.2 hPa | 0 mm | - | 102 W/m² | - |
| 1777674726 | 10.56° C | 36% | 1017.6 hPa | 0 mm | - | 226 W/m² | - |
| 1777674423 | 10.56° C | 33% | 1017.5 hPa | 0 mm | - | 308 W/m² | - |
| 1777674120 | 10.56° C | 34% | 1017.3 hPa | 0 mm | - | 143 W/m² | - |
| 1777673816 | 10.56° C | 34% | 1017.5 hPa | 0 mm | - | 127 W/m² | - |
| 1777673513 | 10.56° C | 34% | 1017.7 hPa | 0 mm | - | 332 W/m² | - |
| 1777673211 | 10° C | 33% | 1017.4 hPa | 0 mm | - | 146 W/m² | - |
| 1777672908 | 10.56° C | 32% | 1017.4 hPa | 0 mm | - | 128 W/m² | - |
| 1777672605 | 10.56° C | 34% | 1017.3 hPa | 0 mm | - | 169 W/m² | - |
| 1777672300 | 10.56° C | 32% | 1017.4 hPa | 0 mm | - | 164 W/m² | - |
| 1777671995 | 10° C | 33% | 1017.3 hPa | 0 mm | - | 181 W/m² | - |
| 1777671691 | 10° C | 33% | 1017.4 hPa | 0 mm | - | 207 W/m² | - |
* Rain latest hour (hover to see other rain measurements)
** Current wind speed in m/s (hover to see current wind gust speed)